Time;durP1;ratioP1;P1;durP2;ratioP2;P2;SDS_P1;SDS_P2;PMS_P1;PMS_P2;Temp;Humidity;BMP_temperature;BMP_pressure;BME280_temperature;BME280_humidity;BME280_pressure;Samples;Min_cycle;Max_cycle;Signal;HPM_P1;HPM_P2
2021/06/19 00:00:29;;;;;;;;;7.50;6.25;;;;;-146.59;100.00;59519.28;4934797;28;45426;-91
2021/06/19 00:02:55;;;;;;;;;8.25;8.25;;;;;-146.59;100.00;59519.28;4937820;28;46296;-86
2021/06/19 00:05:20;;;;;;;;;6.75;6.25;;;;;-146.59;100.00;59519.28;4941289;28;44828;-81
2021/06/19 00:07:46;;;;;;;;;7.75;7.25;;;;;-146.59;100.00;59519.28;4945327;28;44904;-80
2021/06/19 00:10:13;;;;;;;;;7.00;5.75;;;;;-146.59;100.00;59519.28;4942815;28;45384;-93
2021/06/19 00:12:39;;;;;;;;;8.00;7.00;;;;;-146.59;100.00;59519.28;4922729;28;45867;-86
2021/06/19 00:15:06;;;;;;;;;5.75;5.50;;;;;-146.59;100.00;59519.28;4925099;28;45503;-88
2021/06/19 00:17:32;;;;;;;;;8.25;7.00;;;;;-146.59;100.00;59519.28;4917635;28;45517;-92
2021/06/19 00:19:57;;;;;;;;;7.00;7.00;;;;;-146.59;100.00;59519.28;4925834;28;45316;-91
2021/06/19 00:22:23;;;;;;;;;8.75;8.00;;;;;-146.59;100.00;59519.28;4942075;28;44857;-87
2021/06/19 00:24:48;;;;;;;;;10.50;8.00;;;;;-146.59;100.00;59519.28;4941840;28;51568;-88
2021/06/19 00:27:14;;;;;;;;;8.50;7.25;;;;;-146.59;100.00;59519.28;4937427;28;51960;-82
2021/06/19 00:29:39;;;;;;;;;7.25;7.25;;;;;-146.59;100.00;59519.28;4949786;28;45393;-85
2021/06/19 00:32:05;;;;;;;;;9.75;7.75;;;;;-146.59;100.00;59519.28;4933573;28;44827;-95
2021/06/19 00:34:31;;;;;;;;;8.75;6.50;;;;;-146.59;100.00;59519.28;4922104;28;44883;-93
2021/06/19 00:36:56;;;;;;;;;8.00;8.00;;;;;-146.59;100.00;59519.28;4921112;28;45818;-92
2021/06/19 00:39:21;;;;;;;;;7.25;7.25;;;;;-146.59;100.00;59519.28;4932478;28;45190;-94
2021/06/19 00:41:47;;;;;;;;;6.25;6.00;;;;;-146.59;100.00;59519.28;4933959;28;49652;-94
2021/06/19 00:44:18;;;;;;;;;11.50;8.50;;;;;-146.59;100.00;59519.28;4923487;28;57410;-90
2021/06/19 00:46:48;;;;;;;;;7.00;7.00;;;;;-146.59;100.00;59519.28;4927593;28;44960;-95
2021/06/19 00:49:13;;;;;;;;;8.25;7.00;;;;;-146.59;100.00;59519.28;4923582;28;45397;-96
2021/06/19 00:51:41;;;;;;;;;9.00;8.00;;;;;-146.59;100.00;59519.28;4923853;28;56822;-93
2021/06/19 00:54:06;;;;;;;;;9.25;9.25;;;;;-146.59;100.00;59519.28;4922545;28;45840;-94
2021/06/19 00:56:34;;;;;;;;;6.50;6.50;;;;;-146.59;100.00;59519.28;4919978;28;45381;-92
2021/06/19 00:58:59;;;;;;;;;8.25;8.00;;;;;-146.59;100.00;59519.28;4922776;28;45814;-95
2021/06/19 01:01:25;;;;;;;;;7.75;7.50;;;;;-146.59;100.00;59519.28;4923400;28;45346;-93
2021/06/19 01:03:51;;;;;;;;;8.00;8.00;;;;;-146.59;100.00;59519.28;4924607;28;45634;-93
2021/06/19 01:06:17;;;;;;;;;6.75;6.75;;;;;-146.59;100.00;59519.28;4923055;28;44887;-91
2021/06/19 01:08:42;;;;;;;;;8.00;8.00;;;;;-146.59;100.00;59519.28;4923411;28;47229;-91
2021/06/19 01:11:10;;;;;;;;;9.25;6.75;;;;;-146.59;100.00;59519.28;4935138;28;45365;-91
2021/06/19 01:13:36;;;;;;;;;7.00;7.00;;;;;-146.59;100.00;59519.28;4918453;28;53837;-94
2021/06/19 01:16:02;;;;;;;;;8.00;7.25;;;;;-146.59;100.00;59519.28;4917875;28;46871;-92
2021/06/19 01:18:27;;;;;;;;;8.00;8.00;;;;;-146.59;100.00;59519.28;4919266;28;45812;-93
2021/06/19 01:20:52;;;;;;;;;8.25;8.25;;;;;-146.59;100.00;59519.28;4921036;28;45364;-94
2021/06/19 01:23:18;;;;;;;;;9.50;8.50;;;;;-146.59;100.00;59519.28;4922700;28;45480;-94
2021/06/19 01:25:43;;;;;;;;;10.50;8.50;;;;;-146.59;100.00;59519.28;4920387;28;49072;-93
2021/06/19 01:28:11;;;;;;;;;11.00;8.00;;;;;-146.59;100.00;59519.28;4918700;28;46057;-89
2021/06/19 01:30:38;;;;;;;;;6.50;6.50;;;;;-146.59;100.00;59519.28;4917963;28;45342;-90
2021/06/19 01:33:04;;;;;;;;;8.25;7.25;;;;;-146.59;100.00;59519.28;4935906;28;45529;-93
2021/06/19 01:35:30;;;;;;;;;7.50;7.25;;;;;-146.59;100.00;59519.28;4917575;28;46003;-93
2021/06/19 01:37:57;;;;;;;;;7.50;7.50;;;;;-146.59;100.00;59519.28;4915692;28;46369;-91
2021/06/19 01:40:27;;;;;;;;;10.00;9.00;;;;;-146.59;100.00;59519.28;4934946;28;45904;-95
2021/06/19 01:42:54;;;;;;;;;9.50;6.75;;;;;-146.59;100.00;59519.28;4914753;28;45461;-93
2021/06/19 01:45:27;;;;;;;;;8.75;8.00;;;;;-146.59;100.00;59519.28;4916802;28;45577;-91
2021/06/19 01:47:53;;;;;;;;;8.25;7.50;;;;;-146.59;100.00;59519.28;4917672;28;45611;-92
2021/06/19 01:50:21;;;;;;;;;8.00;8.00;;;;;-146.59;100.00;59519.28;4913932;28;46018;-92
2021/06/19 01:52:47;;;;;;;;;10.25;8.25;;;;;-146.59;100.00;59519.28;4916042;28;45568;-92
2021/06/19 01:55:13;;;;;;;;;7.50;7.50;;;;;-146.59;100.00;59519.28;4913249;28;45413;-90
2021/06/19 01:57:39;;;;;;;;;10.25;7.25;;;;;-146.59;100.00;59519.28;4932768;28;48348;-88
2021/06/19 02:00:09;;;;;;;;;11.25;7.75;;;;;-146.59;100.00;59519.28;4917162;28;45427;-93
2021/06/19 02:02:35;;;;;;;;;8.00;8.00;;;;;-146.59;100.00;59519.28;4917896;28;45631;-91
2021/06/19 02:05:00;;;;;;;;;7.00;7.00;;;;;-146.59;100.00;59519.28;4916520;28;45478;-92
2021/06/19 02:07:26;;;;;;;;;7.50;7.50;;;;;-146.59;100.00;59519.28;4913059;28;45514;-90
2021/06/19 02:09:51;;;;;;;;;9.75;9.00;;;;;-146.59;100.00;59519.28;4915931;28;45640;-91
2021/06/19 02:12:17;;;;;;;;;8.00;8.00;;;;;-146.59;100.00;59519.28;4917455;28;45410;-93
2021/06/19 02:14:44;;;;;;;;;8.00;8.00;;;;;-146.59;100.00;59519.28;4933254;28;45522;-92
2021/06/19 02:17:09;;;;;;;;;9.00;9.00;;;;;-146.59;100.00;59519.28;4914638;28;45466;-88
2021/06/19 02:19:34;;;;;;;;;7.75;7.75;;;;;-146.59;100.00;59519.28;4915925;28;59309;-92
2021/06/19 02:22:00;;;;;;;;;10.50;7.50;;;;;-146.59;100.00;59519.28;4916747;28;48522;-92
2021/06/19 02:24:25;;;;;;;;;8.00;8.00;;;;;-146.59;100.00;59519.28;4916300;28;45446;-90
2021/06/19 02:26:51;;;;;;;;;8.50;6.50;;;;;-146.59;100.00;59519.28;4917963;28;46066;-90
2021/06/19 02:29:16;;;;;;;;;10.75;8.25;;;;;-146.59;100.00;59519.28;4915917;28;50881;-90
2021/06/19 02:31:41;;;;;;;;;10.00;7.00;;;;;-146.59;100.00;59519.28;4916731;28;45276;-92
2021/06/19 02:34:07;;;;;;;;;8.25;6.50;;;;;-146.59;100.00;59519.28;4913471;28;50913;-92
2021/06/19 02:36:32;;;;;;;;;9.50;9.50;;;;;-146.59;100.00;59519.28;4916805;28;45918;-86
2021/06/19 02:38:57;;;;;;;;;10.75;9.00;;;;;-146.59;100.00;59519.28;4917984;28;51555;-93
2021/06/19 02:41:23;;;;;;;;;8.75;8.75;;;;;-146.59;100.00;59519.28;4912284;28;50742;-82
2021/06/19 02:43:48;;;;;;;;;9.00;9.00;;;;;-146.59;100.00;59519.28;4916928;28;45396;-91
2021/06/19 02:46:14;;;;;;;;;10.25;8.75;;;;;-146.59;100.00;59519.28;4916168;28;51464;-88
2021/06/19 02:48:40;;;;;;;;;10.50;9.50;;;;;-146.59;100.00;59519.28;4916842;28;45551;-92
2021/06/19 02:51:05;;;;;;;;;9.50;9.00;;;;;-146.59;100.00;59519.28;4915335;28;45380;-90
2021/06/19 02:53:31;;;;;;;;;9.50;7.50;;;;;-146.59;100.00;59519.28;4915438;28;50156;-93
2021/06/19 02:55:56;;;;;;;;;9.75;8.50;;;;;-146.59;100.00;59519.28;4914741;28;46117;-93
2021/06/19 02:58:21;;;;;;;;;10.00;10.00;;;;;-146.59;100.00;59519.28;4916785;28;45553;-91
2021/06/19 03:00:47;;;;;;;;;10.75;10.75;;;;;-146.59;100.00;59519.28;4915604;28;45401;-92
2021/06/19 03:03:12;;;;;;;;;12.25;9.75;;;;;-146.59;100.00;59519.28;4917913;28;45546;-88
2021/06/19 03:05:38;;;;;;;;;10.25;8.75;;;;;-146.59;100.00;59519.28;4912390;28;48130;-91
2021/06/19 03:08:04;;;;;;;;;10.50;9.00;;;;;-146.59;100.00;59519.28;4915447;28;45480;-90
2021/06/19 03:10:33;;;;;;;;;7.75;7.00;;;;;-146.59;100.00;59519.28;4913185;28;45475;-90
2021/06/19 03:12:59;;;;;;;;;11.25;7.00;;;;;-146.59;100.00;59519.28;4917432;28;45768;-92
2021/06/19 03:15:25;;;;;;;;;8.00;8.00;;;;;-146.59;100.00;59519.28;4915915;28;46390;-90
2021/06/19 03:17:50;;;;;;;;;8.00;8.00;;;;;-146.59;100.00;59519.28;4932137;28;45430;-89
2021/06/19 03:20:17;;;;;;;;;14.00;11.00;;;;;-146.59;100.00;59519.28;4913759;28;51506;-91
2021/06/19 03:22:52;;;;;;;;;10.75;8.75;;;;;-146.59;100.00;59519.28;4913070;28;45551;-92
2021/06/19 03:25:23;;;;;;;;;9.75;8.25;;;;;-146.59;100.00;59519.28;4912842;28;47433;-91
2021/06/19 03:27:49;;;;;;;;;11.00;9.50;;;;;-146.59;100.00;59519.28;4914736;28;45649;-87
2021/06/19 03:30:16;;;;;;;;;10.00;9.00;;;;;-146.59;100.00;59519.28;4916837;28;45377;-85
2021/06/19 03:32:41;;;;;;;;;8.75;8.00;;;;;-146.59;100.00;59519.28;4926858;28;45414;-91
2021/06/19 03:35:08;;;;;;;;;9.75;9.50;;;;;-146.59;100.00;59519.28;4911418;28;45556;-92
2021/06/19 03:37:34;;;;;;;;;9.50;9.25;;;;;-146.59;100.00;59519.28;4912660;28;45490;-90
2021/06/19 03:39:59;;;;;;;;;9.50;9.50;;;;;-146.59;100.00;59519.28;4913580;28;45604;-92
2021/06/19 03:42:24;;;;;;;;;8.50;8.50;;;;;-146.59;100.00;59519.28;4903586;28;53787;-93
2021/06/19 03:44:50;;;;;;;;;11.75;10.50;;;;;-146.59;100.00;59519.28;4923513;28;45388;-90
2021/06/19 03:47:15;;;;;;;;;10.50;9.00;;;;;-146.59;100.00;59519.28;4922719;28;45484;-89
2021/06/19 03:49:41;;;;;;;;;8.75;8.00;;;;;-146.59;100.00;59519.28;4918629;28;45323;-92
2021/06/19 03:52:06;;;;;;;;;8.75;8.75;;;;;-146.59;100.00;59519.28;4918388;28;52744;-91
2021/06/19 03:54:37;;;;;;;;;11.25;9.25;;;;;-146.59;100.00;59519.28;4922313;28;45483;-92
2021/06/19 03:57:06;;;;;;;;;11.75;9.25;;;;;-146.59;100.00;59519.28;4921975;28;45781;-92
2021/06/19 03:59:32;;;;;;;;;10.50;9.75;;;;;-146.59;100.00;59519.28;4922730;28;45444;-89
2021/06/19 04:01:58;;;;;;;;;8.00;8.00;;;;;-146.59;100.00;59519.28;4918117;28;45503;-89
2021/06/19 04:04:23;;;;;;;;;8.50;8.50;;;;;-146.59;100.00;59519.28;4922780;28;45475;-91
2021/06/19 04:06:48;;;;;;;;;8.25;7.00;;;;;-146.59;100.00;59519.28;4920336;28;54110;-93
2021/06/19 04:09:14;;;;;;;;;9.00;8.50;;;;;-146.59;100.00;59519.28;4922778;28;45493;-88
2021/06/19 04:11:39;;;;;;;;;8.00;8.00;;;;;-146.59;100.00;59519.28;4919490;28;47611;-95
2021/06/19 04:14:04;;;;;;;;;7.00;6.50;;;;;-146.59;100.00;59519.28;4921495;28;54606;-95
2021/06/19 04:16:30;;;;;;;;;9.75;8.00;;;;;-146.59;100.00;59519.28;4921323;28;45473;-93
2021/06/19 04:18:55;;;;;;;;;11.00;8.75;;;;;-146.59;100.00;59519.28;4920035;28;46366;-95
2021/06/19 04:21:20;;;;;;;;;9.00;8.00;;;;;-146.59;100.00;59519.28;4922779;28;45535;-91
2021/06/19 04:23:46;;;;;;;;;8.00;7.50;;;;;-146.59;100.00;59519.28;4922747;28;54046;-93
2021/06/19 04:26:11;;;;;;;;;8.25;8.25;;;;;-146.59;100.00;59519.28;4919603;28;58419;-93
2021/06/19 04:28:37;;;;;;;;;9.50;9.50;;;;;-146.59;100.00;59519.28;4903556;28;45502;-93
2021/06/19 04:31:03;;;;;;;;;8.25;7.00;;;;;-146.59;100.00;59519.28;4920586;28;51734;-95
2021/06/19 04:33:29;;;;;;;;;8.25;8.25;;;;;-146.59;100.00;59519.28;4922441;28;46317;-95
2021/06/19 04:35:55;;;;;;;;;10.00;7.75;;;;;-146.59;100.00;59519.28;4933625;28;45501;-94
2021/06/19 04:38:20;;;;;;;;;11.00;7.50;;;;;-146.59;100.00;59519.28;4919248;28;45629;-96
2021/06/19 04:40:55;;;;;;;;;7.25;7.00;;;;;-146.59;100.00;59519.28;4922800;28;54595;-93
2021/06/19 04:46:09;;;;;;;;;9.00;9.00;;;;;-146.59;100.00;59519.28;4907196;28;45532;-91
2021/06/19 04:48:35;;;;;;;;;7.00;7.00;;;;;-146.59;100.00;59519.28;4889175;28;54243;-93
2021/06/19 04:51:00;;;;;;;;;8.25;8.25;;;;;-146.59;100.00;59519.28;4921817;28;45567;-95
2021/06/19 04:53:25;;;;;;;;;6.25;6.00;;;;;-146.59;100.00;59519.28;4898374;28;46116;-95
2021/06/19 04:55:51;;;;;;;;;8.00;7.25;;;;;-146.59;100.00;59519.28;4901652;28;57947;-91
2021/06/19 04:58:17;;;;;;;;;7.50;7.50;;;;;-146.59;100.00;59519.28;4919977;28;45560;-94
2021/06/19 05:00:42;;;;;;;;;7.75;7.75;;;;;-146.59;100.00;59519.28;4901248;28;45602;-91
2021/06/19 05:03:08;;;;;;;;;6.00;6.00;;;;;-146.59;100.00;59519.28;4918246;28;52039;-93
2021/06/19 05:05:34;;;;;;;;;9.75;8.00;;;;;-146.59;100.00;59519.28;4912927;28;45480;-91
2021/06/19 05:08:00;;;;;;;;;8.00;8.00;;;;;-146.59;100.00;59519.28;4895323;28;45433;-93
2021/06/19 05:10:28;;;;;;;;;6.75;6.00;;;;;-146.59;100.00;59519.28;4916181;28;45612;-92
2021/06/19 05:12:53;;;;;;;;;7.75;7.75;;;;;-146.59;100.00;59519.28;4916145;28;46558;-92
2021/06/19 05:15:26;;;;;;;;;5.50;5.00;;;;;-146.59;100.00;59519.28;4882368;28;45408;-85
2021/06/19 05:17:53;;;;;;;;;5.75;5.75;;;;;-146.59;100.00;59519.28;4899092;28;45450;-92
2021/06/19 05:20:18;;;;;;;;;6.50;6.50;;;;;-146.59;100.00;59519.28;4899144;28;45696;-90
2021/06/19 05:22:45;;;;;;;;;6.25;5.00;;;;;-146.59;100.00;59519.28;4914226;28;46014;-88
2021/06/19 05:25:13;;;;;;;;;6.00;6.00;;;;;-146.59;100.00;59519.28;4917078;28;45363;-92
2021/06/19 05:27:38;;;;;;;;;6.00;6.00;;;;;-146.59;100.00;59519.28;4917279;28;45497;-91
2021/06/19 05:30:04;;;;;;;;;7.75;5.25;;;;;-146.59;100.00;59519.28;4933543;28;45459;-88
2021/06/19 05:32:30;;;;;;;;;10.25;6.50;;;;;-146.59;100.00;59519.28;4917720;28;45555;-90
2021/06/19 05:34:55;;;;;;;;;5.00;5.00;;;;;-146.59;100.00;59519.28;4917618;28;45319;-92
2021/06/19 05:37:21;;;;;;;;;9.25;6.00;;;;;-146.59;100.00;59519.28;4914130;28;45513;-92
2021/06/19 05:39:46;;;;;;;;;8.00;5.00;;;;;-146.59;100.00;59519.28;4916991;28;45433;-90
2021/06/19 05:42:12;;;;;;;;;5.75;5.75;;;;;-146.59;100.00;59519.28;4917814;28;46130;-92
2021/06/19 05:44:37;;;;;;;;;7.00;5.25;;;;;-146.59;100.00;59519.28;4916583;28;55177;-91
2021/06/19 05:47:02;;;;;;;;;5.25;5.25;;;;;-146.59;100.00;59519.28;4914320;28;45519;-92
2021/06/19 05:49:28;;;;;;;;;6.50;5.25;;;;;-146.59;100.00;59519.28;4917891;28;45588;-92
2021/06/19 05:51:53;;;;;;;;;7.75;7.00;;;;;-146.59;100.00;59519.28;4914688;28;46200;-88
2021/06/19 05:54:19;;;;;;;;;7.00;6.00;;;;;-146.59;100.00;59519.28;4917432;28;45532;-92
2021/06/19 05:56:44;;;;;;;;;6.75;6.75;;;;;-146.59;100.00;59519.28;4931362;28;52144;-94
2021/06/19 05:59:09;;;;;;;;;6.00;6.00;;;;;-146.59;100.00;59519.28;4913179;28;45522;-95
2021/06/19 06:01:35;;;;;;;;;10.25;6.50;;;;;-146.59;100.00;59519.28;4915985;28;52418;-95
2021/06/19 06:04:00;;;;;;;;;5.50;5.50;;;;;-146.59;100.00;59519.28;4917785;28;45513;-88
2021/06/19 06:06:26;;;;;;;;;7.00;5.00;;;;;-146.59;100.00;59519.28;4917183;28;45711;-91
2021/06/19 06:08:51;;;;;;;;;5.50;5.50;;;;;-146.59;100.00;59519.28;4919525;28;45663;-94
2021/06/19 06:11:17;;;;;;;;;7.00;7.00;;;;;-146.59;100.00;59519.28;4915355;28;45499;-90
2021/06/19 06:13:42;;;;;;;;;7.00;6.00;;;;;-146.59;100.00;59519.28;4918183;28;45479;-94
2021/06/19 06:16:08;;;;;;;;;4.00;4.00;;;;;-146.59;100.00;59519.28;4916149;28;45561;-96
2021/06/19 06:18:34;;;;;;;;;5.75;4.00;;;;;-146.59;100.00;59519.28;4938535;28;45465;-92
2021/06/19 06:21:01;;;;;;;;;4.25;4.25;;;;;-146.59;100.00;59519.28;4932299;28;45381;-91
2021/06/19 06:23:26;;;;;;;;;6.00;3.25;;;;;-146.59;100.00;59519.28;4915946;28;45574;-93
2021/06/19 06:25:52;;;;;;;;;5.00;5.00;;;;;-146.59;100.00;59519.28;4917353;28;48847;-92
2021/06/19 06:28:17;;;;;;;;;4.00;4.00;;;;;-146.59;100.00;59519.28;4915958;28;45483;-93
2021/06/19 06:30:44;;;;;;;;;5.25;4.00;;;;;-146.59;100.00;59519.28;4916085;28;45514;-93
2021/06/19 06:33:09;;;;;;;;;3.00;3.00;;;;;-146.59;100.00;59519.28;4932824;28;45703;-92
2021/06/19 06:35:35;;;;;;;;;4.00;4.00;;;;;-146.59;100.00;59519.28;4916926;28;48385;-91
2021/06/19 06:38:00;;;;;;;;;5.00;5.00;;;;;-146.59;100.00;59519.28;4916260;28;45602;-91
2021/06/19 06:40:26;;;;;;;;;5.75;5.75;;;;;-146.59;100.00;59519.28;4916192;28;46501;-91
2021/06/19 06:42:51;;;;;;;;;5.75;5.00;;;;;-146.59;100.00;59519.28;4916175;28;45469;-91
2021/06/19 06:45:16;;;;;;;;;5.00;4.50;;;;;-146.59;100.00;59519.28;4900796;28;45471;-91
2021/06/19 06:47:42;;;;;;;;;4.75;4.75;;;;;-146.59;100.00;59519.28;4919430;28;45483;-92
2021/06/19 06:50:09;;;;;;;;;6.00;4.25;;;;;-146.59;100.00;59519.28;4915533;28;47323;-91
2021/06/19 06:52:35;;;;;;;;;6.00;5.00;;;;;-146.59;100.00;59519.28;4898926;28;45886;-92
2021/06/19 06:55:01;;;;;;;;;5.00;5.00;;;;;-146.59;100.00;59519.28;4911002;28;45496;-93
2021/06/19 06:57:26;;;;;;;;;9.00;6.00;;;;;-146.59;100.00;59519.28;4915766;28;45532;-92
2021/06/19 06:59:52;;;;;;;;;7.25;4.75;;;;;-146.59;100.00;59519.28;4917081;28;58849;-92
2021/06/19 07:02:17;;;;;;;;;5.25;5.25;;;;;-146.59;100.00;59519.28;4916536;28;46047;-92
2021/06/19 07:04:43;;;;;;;;;6.00;6.00;;;;;-146.59;100.00;59519.28;4914263;28;45509;-92
2021/06/19 07:07:08;;;;;;;;;7.50;4.50;;;;;-146.59;100.00;59519.28;4914134;28;54560;-91
2021/06/19 07:09:33;;;;;;;;;6.00;4.75;;;;;-146.59;100.00;59519.28;4916387;28;46337;-90
2021/06/19 07:11:59;;;;;;;;;6.00;4.25;;;;;-146.59;100.00;59519.28;4928298;28;65909;-92
2021/06/19 07:14:24;;;;;;;;;5.00;5.00;;;;;-146.59;100.00;59519.28;4912245;28;45932;-91
2021/06/19 07:16:49;;;;;;;;;4.00;4.00;;;;;-146.59;100.00;59519.28;4914195;28;61401;-92
2021/06/19 07:19:15;;;;;;;;;9.75;6.00;;;;;-146.59;100.00;59519.28;4916784;28;51202;-92
2021/06/19 07:21:40;;;;;;;;;8.00;7.00;;;;;-146.59;100.00;59519.28;4916379;28;45536;-92
2021/06/19 07:24:06;;;;;;;;;9.25;8.00;;;;;-146.59;100.00;59519.28;4932010;28;46153;-93
2021/06/19 07:26:31;;;;;;;;;6.00;6.00;;;;;-146.59;100.00;59519.28;4914192;28;45648;-91
2021/06/19 07:28:58;;;;;;;;;7.25;6.50;;;;;-146.59;100.00;59519.28;4908576;28;45423;-92
2021/06/19 07:31:24;;;;;;;;;15.50;13.00;;;;;-146.59;100.00;59519.28;4909248;28;45911;-90
2021/06/19 07:33:49;;;;;;;;;8.00;5.50;;;;;-146.59;100.00;59519.28;4916971;28;45402;-92
2021/06/19 07:36:15;;;;;;;;;7.75;6.00;;;;;-146.59;100.00;59519.28;4916989;28;54802;-92
2021/06/19 07:38:40;;;;;;;;;5.50;5.50;;;;;-146.59;100.00;59519.28;4930882;28;45458;-92
2021/06/19 07:41:06;;;;;;;;;7.00;6.00;;;;;-146.59;100.00;59519.28;4898306;28;46177;-92
2021/06/19 07:43:31;;;;;;;;;6.00;6.00;;;;;-146.59;100.00;59519.28;4950336;28;45773;-93
2021/06/19 07:45:57;;;;;;;;;4.50;4.50;;;;;-146.59;100.00;59519.28;4935501;28;45490;-93
2021/06/19 07:48:23;;;;;;;;;6.00;4.50;;;;;-146.59;100.00;59519.28;4936012;28;45534;-94
2021/06/19 07:55:59;;;;;;;;;7.00;6.25;;;;;-146.59;100.00;59519.28;5342955;23;45983;-80
2021/06/19 07:58:24;;;;;;;;;6.75;6.00;;;;;-146.59;100.00;59519.28;4952221;28;45654;-80
2021/06/19 08:00:49;;;;;;;;;7.75;7.00;;;;;-146.59;100.00;59519.28;4942195;28;44920;-82
2021/06/19 08:03:15;;;;;;;;;8.00;7.00;;;;;-146.59;100.00;59519.28;4959396;28;44753;-77
2021/06/19 08:05:40;;;;;;;;;7.25;6.25;;;;;-146.59;100.00;59519.28;4919378;28;51459;-64
2021/06/19 08:08:06;;;;;;;;;6.75;5.75;;;;;-146.59;100.00;59519.28;4917352;28;61543;-72
2021/06/19 08:10:31;;;;;;;;;6.25;4.75;;;;;-146.59;100.00;59519.28;4910596;28;45252;-62
2021/06/19 08:12:56;;;;;;;;;10.00;6.50;;;;;-146.59;100.00;59519.28;4916717;28;45518;-62
2021/06/19 08:15:22;;;;;;;;;6.25;6.25;;;;;-146.59;100.00;59519.28;4918227;28;47105;-61
2021/06/19 08:17:47;;;;;;;;;10.50;6.50;;;;;-146.59;100.00;59519.28;4918827;28;46790;-62
2021/06/19 08:20:13;;;;;;;;;8.75;7.00;;;;;-146.59;100.00;59519.28;4919018;28;45625;-61
2021/06/19 08:22:39;;;;;;;;;6.50;6.50;;;;;-146.59;100.00;59519.28;4880501;28;45415;-62
2021/06/19 08:25:05;;;;;;;;;6.50;6.50;;;;;-146.59;100.00;59519.28;4894058;28;45623;-62
2021/06/19 08:27:30;;;;;;;;;4.75;4.75;;;;;-146.59;100.00;59519.28;4899456;28;45820;-62
2021/06/19 08:29:56;;;;;;;;;5.75;4.00;;;;;-146.59;100.00;59519.28;4902368;28;45625;-62
2021/06/19 08:32:22;;;;;;;;;6.00;6.00;;;;;-146.59;100.00;59519.28;4900992;28;45542;-62
2021/06/19 08:34:47;;;;;;;;;6.50;6.50;;;;;-146.59;100.00;59519.28;4904121;28;45493;-62
2021/06/19 08:37:13;;;;;;;;;9.00;6.50;;;;;-146.59;100.00;59519.28;4898294;28;46120;-59
2021/06/19 08:39:38;;;;;;;;;7.00;6.50;;;;;-146.59;100.00;59519.28;4903851;28;45546;-63
2021/06/19 08:42:04;;;;;;;;;6.00;6.00;;;;;-146.59;100.00;59519.28;4902804;28;46704;-62
2021/06/19 08:44:30;;;;;;;;;7.00;7.00;;;;;-146.59;100.00;59519.28;4899399;28;46677;-63
2021/06/19 08:46:56;;;;;;;;;8.00;6.00;;;;;-146.59;100.00;59519.28;4898040;28;46269;-63
2021/06/19 08:49:23;;;;;;;;;7.25;7.25;;;;;-146.59;100.00;59519.28;4893637;28;46113;-68
2021/06/19 08:51:56;;;;;;;;;6.00;5.50;;;;;-146.59;100.00;59519.28;4900245;28;45578;-62
2021/06/19 08:54:23;;;;;;;;;6.00;6.00;;;;;-146.59;100.00;59519.28;4902316;28;45857;-62
2021/06/19 08:56:49;;;;;;;;;8.75;6.75;;;;;-146.59;100.00;59519.28;4898481;28;46569;-69
2021/06/19 08:59:14;;;;;;;;;6.50;6.50;;;;;-146.59;100.00;59519.28;4901872;28;45610;-75
2021/06/19 09:01:41;;;;;;;;;7.00;6.25;;;;;-146.59;100.00;59519.28;4916510;28;45913;-78
2021/06/19 09:04:07;;;;;;;;;5.00;5.00;;;;;-146.59;100.00;59519.28;4899865;28;45457;-77
2021/06/19 09:06:43;;;;;;;;;6.00;6.00;;;;;-146.59;100.00;59519.28;4903018;28;45601;-78
2021/06/19 09:09:15;;;;;;;;;6.00;6.00;;;;;-146.59;100.00;59519.28;4908213;28;45387;-78
2021/06/19 09:11:47;;;;;;;;;6.75;5.25;;;;;-146.59;100.00;59519.28;4907535;28;46094;-75
2021/06/19 09:14:21;;;;;;;;;7.75;5.25;;;;;-146.59;100.00;59519.28;4907474;28;45533;-78
2021/06/19 09:17:02;;;;;;;;;8.25;6.50;;;;;-146.59;100.00;59519.28;4898377;28;46867;-76
2021/06/19 09:19:38;;;;;;;;;6.75;6.50;;;;;-146.59;100.00;59519.28;4900069;28;45781;-78
2021/06/19 09:22:21;;;;;;;;;8.25;6.00;;;;;-146.59;100.00;59519.28;4902673;28;45505;-78
2021/06/19 09:24:46;;;;;;;;;10.25;6.25;;;;;-146.59;100.00;59519.28;4897724;28;45469;-76
2021/06/19 09:27:27;;;;;;;;;8.25;6.50;;;;;-146.59;100.00;59519.28;4907986;28;46172;-79
2021/06/19 09:30:31;;;;;;;;;7.25;7.25;;;;;-146.59;100.00;59519.28;4907839;28;45703;-79
2021/06/19 09:33:02;;;;;;;;;6.00;5.25;;;;;-146.59;100.00;59519.28;4900135;28;45362;-77
2021/06/19 09:35:33;;;;;;;;;7.25;7.25;;;;;-146.59;100.00;59519.28;4903551;28;45459;-77
2021/06/19 09:38:02;;;;;;;;;9.75;9.50;;;;;-146.59;100.00;59519.28;4906935;28;46065;-78
2021/06/19 09:40:40;;;;;;;;;7.25;7.00;;;;;-146.59;100.00;59519.28;4899312;28;45827;-75
2021/06/19 09:43:14;;;;;;;;;10.00;8.25;;;;;-146.59;100.00;59519.28;4902375;28;45387;-78
2021/06/19 09:45:42;;;;;;;;;8.50;8.50;;;;;-146.59;100.00;59519.28;4902869;28;45597;-76
2021/06/19 09:48:22;;;;;;;;;8.00;8.00;;;;;-146.59;100.00;59519.28;4906263;28;45523;-77
2021/06/19 09:51:11;;;;;;;;;11.00;9.00;;;;;-146.59;100.00;59519.28;4900460;28;45893;-78
2021/06/19 09:53:36;;;;;;;;;10.50;8.75;;;;;-146.59;100.00;59519.28;4908724;28;45447;-77
2021/06/19 09:56:07;;;;;;;;;12.50;10.00;;;;;-146.59;100.00;59519.28;4901937;28;45606;-78
2021/06/19 09:58:37;;;;;;;;;9.25;8.75;;;;;-146.59;100.00;59519.28;4903315;28;45497;-79
2021/06/19 10:01:02;;;;;;;;;15.75;9.75;;;;;-146.59;100.00;59519.28;4900568;28;45657;-78
2021/06/19 10:03:27;;;;;;;;;8.00;8.00;;;;;-146.59;100.00;59519.28;4904041;28;56702;-77
2021/06/19 10:05:53;;;;;;;;;9.50;9.50;;;;;-146.59;100.00;59519.28;4916307;28;52338;-78
2021/06/19 10:08:18;;;;;;;;;14.50;12.00;;;;;-146.59;100.00;59519.28;4906583;28;46166;-78
2021/06/19 10:10:45;;;;;;;;;12.00;12.00;;;;;-146.59;100.00;59519.28;4915962;28;55503;-77
2021/06/19 10:13:13;;;;;;;;;9.50;9.50;;;;;-146.59;100.00;59519.28;4899846;28;49387;-76
2021/06/19 10:15:38;;;;;;;;;15.25;12.75;;;;;-146.59;100.00;59519.28;4916796;28;45609;-77
2021/06/19 10:18:04;;;;;;;;;21.75;20.00;;;;;-146.59;100.00;59519.28;4914816;28;58808;-77
2021/06/19 10:20:30;;;;;;;;;16.75;14.75;;;;;-146.59;100.00;59519.28;4899447;28;56560;-74
2021/06/19 10:22:56;;;;;;;;;110.50;93.50;;;;;-146.59;100.00;59519.28;4894422;28;45494;-77
2021/06/19 10:25:26;;;;;;;;;32.75;25.00;;;;;-146.59;100.00;59519.28;4899839;28;45491;-77
2021/06/19 10:27:52;;;;;;;;;16.50;15.50;;;;;-146.59;100.00;59519.28;4899357;28;47496;-77
2021/06/19 10:30:18;;;;;;;;;19.25;19.00;;;;;-146.59;100.00;59519.28;4916543;28;54016;-79
2021/06/19 10:32:43;;;;;;;;;18.00;16.25;;;;;-146.59;100.00;59519.28;4921412;28;45424;-77
2021/06/19 10:35:12;;;;;;;;;13.25;12.00;;;;;-146.59;100.00;59519.28;4906717;28;45418;-79
2021/06/19 10:37:37;;;;;;;;;17.25;11.75;;;;;-146.59;100.00;59519.28;4915728;28;46068;-80
2021/06/19 10:40:19;;;;;;;;;12.50;12.50;;;;;-146.59;100.00;59519.28;4915176;28;57104;-80
2021/06/19 10:42:45;;;;;;;;;9.75;9.75;;;;;-146.59;100.00;59519.28;4911108;28;45495;-79
2021/06/19 10:45:19;;;;;;;;;10.25;7.50;;;;;-146.59;100.00;59519.28;4916591;28;45383;-78
2021/06/19 10:48:07;;;;;;;;;10.00;8.25;;;;;-146.59;100.00;59519.28;4897662;28;46684;-84
2021/06/19 10:50:37;;;;;;;;;9.75;9.75;;;;;-146.59;100.00;59519.28;4901050;28;45505;-78
2021/06/19 10:53:08;;;;;;;;;12.50;12.50;;;;;-146.59;100.00;59519.28;4902839;28;45479;-80
2021/06/19 10:55:35;;;;;;;;;12.75;12.25;;;;;-146.59;100.00;59519.28;4898887;28;45598;-82
2021/06/19 10:58:18;;;;;;;;;11.50;11.00;;;;;-146.59;100.00;59519.28;4913063;28;46260;-81
2021/06/19 11:00:46;;;;;;;;;7.75;7.75;;;;;-146.59;100.00;59519.28;4907228;28;45498;-81
2021/06/19 11:03:13;;;;;;;;;7.75;7.00;;;;;-146.59;100.00;59519.28;4913414;28;45392;-83
2021/06/19 11:05:44;;;;;;;;;7.00;7.00;;;;;-146.59;100.00;59519.28;4904927;28;45498;-84
2021/06/19 11:08:14;;;;;;;;;12.00;10.25;;;;;-146.59;100.00;59519.28;4905176;28;45952;-83
2021/06/19 11:10:52;;;;;;;;;8.00;8.00;;;;;-146.59;100.00;59519.28;4903310;28;45347;-79
2021/06/19 11:13:34;;;;;;;;;9.25;9.25;;;;;-146.59;100.00;59519.28;4901913;28;45520;-83